Powhattan, KS

6:59 AM CDT on August 22, 2019 (GMT -0500)
North of Powhattan | | Change Station

Elev 1188 ft 39.78 °N, 95.64 °W | Updated 13 minutes ago

Overcast
Overcast
67.8 °F
Feels Like 67.8 °F
N
1
Wind Variable Wind from East
Gusts 3.0 mph

Today
High -- | Low -- °F
--% Chance of Precip.
Yesterday
High -- | Low -- °F
Precip. -- in
Pressure 29.99 in
Visibility 6.0 miles
Clouds Overcast 6000 ft
Dew Point 68 °F
Humidity 99%
Rainfall 0.00 in
Snow Depth Not available.
6:41 AM 8:09 PM
Waning Gibbous, 61% visible
METAR KFNB 221153Z AUTO 06004KT 6SM BR OVC060 20/19 A3001 RMK AO2 SLP154 70008 T02000194 10217 20194 53000
Pressure 29.99 in
Visibility 6.0 miles
Clouds Overcast 6000 ft
Dew Point 68 °F
Humidity 99%
Rainfall 0.00 in
Snow Depth Not available.
6:41 AM 8:09 PM
Waning Gibbous, 61% visible
METAR KFNB 221153Z AUTO 06004KT 6SM BR OVC060 20/19 A3001 RMK AO2 SLP154 70008 T02000194 10217 20194 53000

Get Severe Weather Alerts

Thanks for signing up!

Be on the lookout for a verification email in your inbox.

You'll start receiving the daily forecast at 6 AM.

×

10-Day Weather Forecast

Almanac

Astronomy

Aug. 22, 2019 Rise Set
Actual Time
Civil Twilight
Nautical Twilight
Astronomical Twilight
Moon
Length of Visible Light
Length of Day
Tomorrow will be .
, % of the Moon is Illuminated

Today's Extremes

State Highs State Lows

Community

WunderPhotos

Category 6

Welcome to Category 6. This is the collective home for Weather Underground's featured writeups by Dr. Jeff Masters (right), Bob Henson (left), Chris Burt, and other regular contributors.

Nearby

Air Quality

  Air Quality AQ Index Pollutant
Not available.

Snow Depth

Station Depth Elevation

Earthquake Activity

City Distance Mag. Time & Date
Minimum magnitude displayed is 2.5.

Coastal Water Temperatures

Place Temperature

Stations

Nearby Weather Stations

Station Location Temp. Windchill Dew Point Humidity Wind Precip. Elev Updated Type
                   

Watches & Warnings

There are currently no watches in effect.